Time;durP1;ratioP1;P1;durP2;ratioP2;P2;SDS_P1;SDS_P2;PMS_P1;PMS_P2;Temp;Humidity;BMP_temperature;BMP_pressure;BME280_temperature;BME280_humidity;BME280_pressure;Samples;Min_cycle;Max_cycle;Signal;HPM_P1;HPM_P2
2022/03/13 00:02:19;;;;;;;4.25;3.17;;;0.80;99.90;;;;;;4937103;28;20488;-89
2022/03/13 00:04:49;;;;;;;4.60;3.10;;;0.80;99.90;;;;;;5013616;28;20025;-87
2022/03/13 00:07:19;;;;;;;4.53;3.65;;;0.70;99.90;;;;;;5013893;28;20380;-91
2022/03/13 00:09:49;;;;;;;5.15;3.63;;;0.70;99.90;;;;;;5013988;28;20484;-90
2022/03/13 00:12:18;;;;;;;5.20;3.30;;;0.70;99.90;;;;;;5013937;28;20116;-89
2022/03/13 00:14:44;;;;;;;5.43;3.22;;;0.60;99.90;;;;;;5013707;28;20108;-86
2022/03/13 00:17:14;;;;;;;5.88;3.30;;;0.60;99.90;;;;;;5013712;28;20105;-88
2022/03/13 00:19:40;;;;;;;4.67;3.40;;;0.60;99.90;;;;;;5013640;28;20117;-90
2022/03/13 00:22:06;;;;;;;5.38;3.40;;;0.50;99.90;;;;;;5014814;28;20030;-87
2022/03/13 00:24:33;;;;;;;3.83;3.10;;;0.50;99.90;;;;;;5017711;28;20040;-88
2022/03/13 00:27:00;;;;;;;5.22;3.38;;;0.50;99.90;;;;;;5017545;28;20026;-90
2022/03/13 00:29:26;;;;;;;8.05;3.80;;;0.40;99.90;;;;;;5017527;28;20129;-89
2022/03/13 00:31:52;;;;;;;5.95;3.33;;;0.50;99.90;;;;;;5017087;28;20026;-81
2022/03/13 00:34:18;;;;;;;6.13;3.55;;;0.50;99.90;;;;;;5015749;28;20029;-84
2022/03/13 00:36:44;;;;;;;4.47;3.05;;;0.50;99.90;;;;;;5014228;28;20032;-84
2022/03/13 00:39:10;;;;;;;5.28;3.33;;;0.50;99.90;;;;;;5016038;28;20045;-85
2022/03/13 00:41:36;;;;;;;5.53;3.47;;;0.50;99.90;;;;;;5015834;28;20520;-83
2022/03/13 00:44:02;;;;;;;4.30;3.08;;;0.40;99.90;;;;;;5015715;28;20030;-83
2022/03/13 00:46:29;;;;;;;4.40;3.38;;;0.40;99.90;;;;;;5015701;28;20118;-83
2022/03/13 00:48:54;;;;;;;6.75;3.72;;;0.40;99.90;;;;;;5015511;28;20029;-84
2022/03/13 00:51:20;;;;;;;6.65;3.03;;;0.40;99.90;;;;;;5015308;28;20120;-84
2022/03/13 00:53:46;;;;;;;4.20;3.08;;;0.40;99.90;;;;;;5015390;28;20097;-83
2022/03/13 00:56:12;;;;;;;4.47;3.15;;;0.40;99.90;;;;;;5015533;28;20108;-83
2022/03/13 00:58:38;;;;;;;7.22;3.80;;;0.40;99.90;;;;;;5015602;28;20030;-83
2022/03/13 01:01:05;;;;;;;6.20;3.78;;;0.40;99.90;;;;;;5015379;28;20037;-83
2022/03/13 01:03:47;;;;;;;5.30;3.65;;;0.40;99.90;;;;;;5015569;28;20025;-83
2022/03/13 01:06:14;;;;;;;6.30;3.47;;;0.30;99.90;;;;;;5015076;28;20131;-85
2022/03/13 01:08:40;;;;;;;5.72;3.15;;;0.30;99.90;;;;;;5015496;28;20033;-83
2022/03/13 01:11:06;;;;;;;3.88;3.17;;;0.40;99.90;;;;;;5014980;28;20034;-84
2022/03/13 01:13:33;;;;;;;5.13;3.25;;;0.40;99.90;;;;;;5015338;28;20022;-85
2022/03/13 01:16:16;;;;;;;5.75;3.40;;;0.50;99.90;;;;;;5015238;28;20029;-87
2022/03/13 01:18:51;;;;;;;3.45;2.92;;;0.50;99.90;;;;;;5015116;28;20117;-86
2022/03/13 01:21:17;;;;;;;5.20;3.33;;;0.50;99.90;;;;;;5015197;28;20022;-85
2022/03/13 01:23:57;;;;;;;4.75;3.40;;;0.50;99.90;;;;;;5015089;28;20133;-85
2022/03/13 01:26:23;;;;;;;9.07;3.33;;;0.50;99.90;;;;;;5015420;28;20119;-89
2022/03/13 01:28:55;;;;;;;4.78;3.58;;;0.50;99.90;;;;;;5016467;28;20064;-90
2022/03/13 01:31:24;;;;;;;4.82;3.30;;;0.60;99.90;;;;;;5016480;28;20053;-89
2022/03/13 01:33:50;;;;;;;5.63;3.38;;;0.50;99.90;;;;;;5015348;28;20552;-89
2022/03/13 01:36:16;;;;;;;4.65;3.25;;;0.50;99.90;;;;;;5016226;28;20127;-88
2022/03/13 01:38:42;;;;;;;6.05;2.97;;;0.50;99.90;;;;;;5015980;28;20050;-90
2022/03/13 01:41:08;;;;;;;4.72;3.33;;;0.50;99.90;;;;;;5016126;28;20022;-89
2022/03/13 01:43:34;;;;;;;5.05;2.90;;;0.50;99.90;;;;;;5015765;28;20494;-88
2022/03/13 01:46:01;;;;;;;4.68;3.30;;;0.50;99.90;;;;;;5015607;28;20026;-84
2022/03/13 01:48:28;;;;;;;3.80;2.70;;;0.60;99.90;;;;;;5014918;28;20053;-85
2022/03/13 01:50:55;;;;;;;4.18;3.13;;;0.60;99.90;;;;;;5014476;28;20045;-86
2022/03/13 01:53:21;;;;;;;6.93;4.65;;;0.60;99.90;;;;;;5014567;28;20030;-84
2022/03/13 01:55:55;;;;;;;4.90;3.03;;;0.60;99.90;;;;;;5014417;28;20037;-84
2022/03/13 01:58:22;;;;;;;4.35;3.10;;;0.60;99.90;;;;;;5014594;28;20113;-84
2022/03/13 02:00:48;;;;;;;4.45;3.17;;;0.60;99.90;;;;;;5015108;28;20026;-85
2022/03/13 02:03:18;;;;;;;5.28;2.95;;;0.60;99.90;;;;;;5014847;28;20018;-86
2022/03/13 02:05:44;;;;;;;5.57;3.13;;;0.60;99.90;;;;;;5014954;28;20026;-89
2022/03/13 02:08:18;;;;;;;4.35;3.22;;;0.60;99.90;;;;;;5014755;28;20041;-86
2022/03/13 02:10:44;;;;;;;4.57;2.75;;;0.50;99.90;;;;;;5014590;28;20034;-88
2022/03/13 02:13:11;;;;;;;5.03;3.10;;;0.50;99.90;;;;;;5014160;28;20026;-76
2022/03/13 02:15:38;;;;;;;3.25;2.90;;;0.50;99.90;;;;;;5014238;28;20030;-81
2022/03/13 02:18:05;;;;;;;4.72;3.10;;;0.50;99.90;;;;;;5013772;28;20029;-82
2022/03/13 02:20:38;;;;;;;3.05;2.63;;;0.40;99.90;;;;;;5012488;28;20433;-82
2022/03/13 02:23:15;;;;;;;5.50;3.33;;;0.40;99.90;;;;;;5014028;28;20034;-84
2022/03/13 02:52:19;;;;;;;4.22;2.80;;;0.20;99.90;;;;;;5012170;28;20046;-78
2022/03/13 02:54:45;;;;;;;5.10;2.78;;;0.20;99.90;;;;;;5015034;28;20539;-77
2022/03/13 02:57:10;;;;;;;4.78;2.90;;;0.10;99.90;;;;;;5013367;28;20018;-77
2022/03/13 02:59:36;;;;;;;4.72;2.88;;;0.00;99.90;;;;;;5013247;28;20105;-78
2022/03/13 03:02:02;;;;;;;4.13;2.80;;;-0.10;99.90;;;;;;5012742;28;20026;-78
2022/03/13 03:38:08;;;;;;;6.30;3.33;;;-0.20;99.90;;;;;;5672343;22;20472;-80
2022/03/13 03:40:35;;;;;;;5.03;2.92;;;-0.30;99.90;;;;;;4993020;28;20054;-80
2022/03/13 03:43:04;;;;;;;3.80;3.08;;;-0.30;99.90;;;;;;4993064;28;20041;-82
2022/03/13 03:45:31;;;;;;;4.15;2.83;;;-0.30;99.90;;;;;;4993099;28;20034;-79
2022/03/13 03:47:57;;;;;;;5.88;3.25;;;-0.30;99.90;;;;;;4995324;28;20026;-79
2022/03/13 03:50:23;;;;;;;5.78;3.47;;;-0.30;99.90;;;;;;4997068;28;20030;-79
2022/03/13 03:52:51;;;;;;;3.85;2.92;;;-0.30;99.90;;;;;;4992792;28;20070;-79
2022/03/13 03:55:17;;;;;;;5.18;2.42;;;-0.30;99.90;;;;;;4992929;28;20030;-79
2022/03/13 03:57:44;;;;;;;4.75;3.13;;;-0.30;99.90;;;;;;4992287;28;20365;-79
2022/03/13 04:00:10;;;;;;;4.00;3.20;;;-0.30;99.90;;;;;;4992567;28;20390;-79
2022/03/13 04:02:36;;;;;;;3.92;2.80;;;-0.30;99.90;;;;;;4992454;28;20112;-79
2022/03/13 04:05:02;;;;;;;4.22;2.83;;;-0.30;99.90;;;;;;4992263;28;20161;-79
2022/03/13 04:07:28;;;;;;;5.88;2.85;;;-0.30;99.90;;;;;;4992547;28;20014;-80
2022/03/13 04:09:54;;;;;;;4.78;2.90;;;-0.30;99.90;;;;;;4992164;28;20034;-80
2022/03/13 04:12:20;;;;;;;5.53;3.17;;;-0.40;99.90;;;;;;4992789;28;20034;-81
2022/03/13 04:14:46;;;;;;;3.80;2.75;;;-0.40;99.90;;;;;;4992500;28;20018;-81
2022/03/13 04:17:11;;;;;;;4.28;2.63;;;-0.30;99.90;;;;;;4992493;28;20026;-81
2022/03/13 04:19:37;;;;;;;3.78;2.50;;;-0.40;99.90;;;;;;4992487;28;20085;-79
2022/03/13 04:22:03;;;;;;;4.28;2.55;;;-0.40;99.90;;;;;;4992302;28;20109;-80
2022/03/13 04:24:31;;;;;;;3.80;2.90;;;-0.40;99.90;;;;;;4992338;28;20034;-81
2022/03/13 04:26:57;;;;;;;3.75;2.70;;;-0.50;99.90;;;;;;4992612;28;20030;-81
2022/03/13 04:29:24;;;;;;;4.18;2.88;;;-0.50;99.90;;;;;;4992437;28;20124;-82
2022/03/13 04:31:54;;;;;;;3.72;2.45;;;-0.50;99.90;;;;;;4992256;28;20500;-82
2022/03/13 04:34:21;;;;;;;3.15;2.85;;;-0.50;99.90;;;;;;4992397;28;20031;-83
2022/03/13 04:36:47;;;;;;;3.47;2.53;;;-0.50;99.90;;;;;;4992283;28;20038;-84
2022/03/13 04:39:14;;;;;;;4.28;2.88;;;-0.50;99.90;;;;;;4992177;28;20058;-81
2022/03/13 04:41:40;;;;;;;5.18;2.83;;;-0.60;99.90;;;;;;4992385;28;20030;-80
2022/03/13 04:44:08;;;;;;;3.88;2.90;;;-0.60;99.90;;;;;;4992123;28;20054;-80
2022/03/13 04:46:34;;;;;;;5.20;2.80;;;-0.60;99.90;;;;;;4992368;28;20117;-80
2022/03/13 04:49:00;;;;;;;4.47;3.10;;;-0.60;99.90;;;;;;4991958;28;20030;-80
2022/03/13 04:51:26;;;;;;;3.75;2.70;;;-0.60;99.90;;;;;;4992422;28;20040;-81
2022/03/13 04:53:52;;;;;;;4.25;2.65;;;-0.60;99.90;;;;;;4991979;28;20033;-79
2022/03/13 04:56:18;;;;;;;4.60;3.28;;;-0.60;99.90;;;;;;4992480;28;20371;-79
2022/03/13 04:58:44;;;;;;;4.60;2.80;;;-0.70;99.90;;;;;;4991992;28;20028;-79
2022/03/13 05:01:11;;;;;;;4.25;2.85;;;-0.80;99.90;;;;;;4991923;28;20034;-79
2022/03/13 05:03:36;;;;;;;3.33;2.67;;;-0.90;99.90;;;;;;4992231;28;20034;-79
2022/03/13 05:06:05;;;;;;;3.72;2.90;;;-0.90;99.90;;;;;;4992194;28;20050;-82
2022/03/13 05:08:36;;;;;;;4.90;2.90;;;-0.90;99.90;;;;;;4992303;28;20034;-84
2022/03/13 05:11:05;;;;;;;4.20;3.15;;;-1.00;99.90;;;;;;4995723;28;20038;-85
2022/03/13 05:13:31;;;;;;;3.75;2.60;;;-0.90;99.90;;;;;;4995887;28;20053;-83
2022/03/13 05:15:57;;;;;;;3.63;2.70;;;-0.90;99.90;;;;;;4995319;28;20026;-83
2022/03/13 05:18:23;;;;;;;3.75;2.85;;;-0.90;99.90;;;;;;4995673;28;20026;-79
2022/03/13 05:20:49;;;;;;;4.20;3.08;;;-0.90;99.90;;;;;;4995601;28;20040;-80
2022/03/13 05:23:15;;;;;;;3.17;2.88;;;-0.90;99.90;;;;;;4995311;28;20022;-78
2022/03/13 05:25:41;;;;;;;4.47;3.10;;;-0.80;99.90;;;;;;4995570;28;20034;-81
2022/03/13 05:28:10;;;;;;;4.32;2.72;;;-0.90;99.90;;;;;;4995447;28;20084;-82
2022/03/13 05:30:37;;;;;;;4.50;2.63;;;-0.90;99.90;;;;;;4995242;28;20045;-77
2022/03/13 05:33:04;;;;;;;5.18;3.22;;;-1.00;99.90;;;;;;4995129;28;20027;-69
2022/03/13 05:35:30;;;;;;;5.28;3.00;;;-1.10;99.90;;;;;;4995099;28;20076;-72
2022/03/13 05:37:56;;;;;;;6.47;2.85;;;-1.10;99.90;;;;;;4994712;28;20050;-69
2022/03/13 05:40:22;;;;;;;3.17;2.65;;;-1.10;99.90;;;;;;5010784;28;20033;-75
2022/03/13 05:42:57;;;;;;;3.85;2.92;;;-0.80;99.90;;;;;;5013426;28;20026;-79
2022/03/13 05:45:27;;;;;;;7.45;3.30;;;0.30;99.90;;;;;;5013341;28;20076;-86
2022/03/13 05:47:58;;;;;;;4.18;2.85;;;0.20;99.90;;;;;;5013833;28;20104;-82
2022/03/13 05:50:28;;;;;;;13.25;5.65;;;-0.20;99.90;;;;;;5013732;28;20038;-76
2022/03/13 05:52:59;;;;;;;11.63;5.68;;;-0.40;99.90;;;;;;5011642;28;20017;-76
2022/03/13 05:55:26;;;;;;;4.63;3.20;;;-0.50;99.90;;;;;;5013809;28;20026;-78
2022/03/13 05:57:53;;;;;;;4.40;3.03;;;-0.50;99.90;;;;;;5013682;28;20029;-78
2022/03/13 06:00:21;;;;;;;14.10;7.90;;;-0.40;99.90;;;;;;5013899;28;20017;-76
2022/03/13 06:02:47;;;;;;;7.00;4.00;;;-0.20;99.90;;;;;;5012585;28;20037;-76
2022/03/13 06:05:15;;;;;;;4.65;2.88;;;0.10;99.90;;;;;;5013716;28;20021;-76
2022/03/13 06:07:40;;;;;;;3.53;2.75;;;0.30;99.90;;;;;;5013498;28;20026;-76
2022/03/13 06:10:08;;;;;;;3.92;2.42;;;0.50;99.90;;;;;;5013080;28;20499;-77
2022/03/13 06:12:35;;;;;;;5.75;3.53;;;0.60;99.90;;;;;;5013496;28;20535;-76
2022/03/13 06:15:02;;;;;;;4.28;2.75;;;0.90;99.90;;;;;;5010701;28;20030;-81
2022/03/13 06:17:28;;;;;;;4.45;2.42;;;1.10;99.90;;;;;;5013228;28;20029;-74
2022/03/13 06:19:55;;;;;;;3.53;2.63;;;1.30;99.90;;;;;;5010854;28;20033;-74
2022/03/13 06:22:22;;;;;;;2.83;2.38;;;1.50;99.90;;;;;;5010805;28;20023;-72
2022/03/13 06:24:48;;;;;;;3.80;3.03;;;1.70;99.90;;;;;;5013350;28;20117;-71
2022/03/13 06:27:14;;;;;;;3.88;2.75;;;1.90;99.90;;;;;;5012530;28;20108;-72
2022/03/13 06:29:41;;;;;;;5.07;2.78;;;2.10;99.90;;;;;;5013515;28;20030;-72
2022/03/13 06:32:07;;;;;;;3.25;2.38;;;2.30;99.90;;;;;;5013648;28;20033;-72
2022/03/13 06:34:34;;;;;;;5.07;2.45;;;2.40;99.90;;;;;;5013454;28;20113;-72
2022/03/13 06:37:00;;;;;;;3.22;2.35;;;2.60;99.90;;;;;;5013363;28;20084;-72
2022/03/13 06:39:26;;;;;;;3.08;2.50;;;2.70;99.90;;;;;;5013264;28;20045;-72
2022/03/13 06:41:52;;;;;;;3.35;2.50;;;2.70;99.90;;;;;;5013415;28;20037;-72
2022/03/13 06:44:21;;;;;;;2.55;2.15;;;2.80;99.90;;;;;;5013312;28;20037;-72
2022/03/13 06:46:46;;;;;;;3.40;2.70;;;2.90;99.90;;;;;;5013287;28;20535;-72
2022/03/13 06:49:12;;;;;;;3.83;2.30;;;2.90;99.90;;;;;;5013065;28;20034;-72
2022/03/13 06:51:38;;;;;;;3.53;2.40;;;3.00;99.90;;;;;;5013201;28;20033;-72
2022/03/13 06:54:13;;;;;;;4.10;2.75;;;2.90;99.70;;;;;;5013026;28;20113;-81
2022/03/13 06:56:40;;;;;;;4.05;2.45;;;2.90;99.20;;;;;;5013156;28;20408;-81
2022/03/13 06:59:06;;;;;;;3.35;2.47;;;2.90;99.20;;;;;;5013033;28;20591;-81
2022/03/13 07:01:37;;;;;;;4.18;2.45;;;2.70;98.90;;;;;;5013068;28;20029;-79
2022/03/13 07:04:03;;;;;;;3.22;2.25;;;2.60;99.30;;;;;;5013106;28;20030;-69
2022/03/13 07:06:29;;;;;;;2.78;2.20;;;2.70;99.90;;;;;;5013359;28;20026;-71
2022/03/13 07:08:59;;;;;;;3.55;2.50;;;3.10;99.90;;;;;;5013128;28;20354;-75
2022/03/13 07:11:26;;;;;;;3.10;2.50;;;3.30;99.90;;;;;;5013230;28;20044;-67
2022/03/13 07:13:52;;;;;;;3.08;2.40;;;3.00;99.90;;;;;;5013008;28;20026;-66
2022/03/13 07:16:19;;;;;;;3.85;2.47;;;2.70;99.60;;;;;;5012025;28;20084;-66
2022/03/13 07:18:45;;;;;;;3.78;2.38;;;2.50;99.90;;;;;;5009885;28;20481;-66
2022/03/13 07:21:12;;;;;;;4.13;2.40;;;2.40;99.90;;;;;;5011252;28;20029;-67
2022/03/13 07:23:38;;;;;;;3.35;2.30;;;2.30;99.90;;;;;;5011613;28;20038;-66
2022/03/13 07:26:04;;;;;;;4.28;2.80;;;2.30;99.90;;;;;;5012398;28;20053;-68
2022/03/13 07:28:30;;;;;;;4.85;2.40;;;2.20;99.90;;;;;;5012460;28;20377;-68
2022/03/13 07:30:57;;;;;;;4.05;2.00;;;2.90;99.90;;;;;;5006340;28;20041;-71
2022/03/13 07:33:23;;;;;;;2.88;2.25;;;3.70;99.90;;;;;;4995853;28;20023;-70
2022/03/13 07:35:48;;;;;;;2.95;2.10;;;4.10;99.90;;;;;;5011846;28;20034;-71
2022/03/13 07:38:14;;;;;;;2.70;1.85;;;4.20;99.90;;;;;;5011612;28;20037;-68
2022/03/13 07:40:41;;;;;;;2.80;2.10;;;4.30;99.90;;;;;;5010882;28;20034;-68
2022/03/13 07:43:07;;;;;;;2.85;2.35;;;4.10;99.90;;;;;;5011097;28;20379;-72
2022/03/13 07:45:33;;;;;;;4.18;2.20;;;3.80;99.90;;;;;;5010954;28;20034;-71
2022/03/13 07:47:59;;;;;;;3.03;2.30;;;3.40;99.90;;;;;;5012231;28;20030;-72
2022/03/13 07:50:27;;;;;;;3.53;2.20;;;3.20;99.80;;;;;;5027495;28;20038;-71
2022/03/13 07:52:54;;;;;;;3.80;2.30;;;2.90;99.40;;;;;;5012471;28;20081;-70
2022/03/13 07:55:24;;;;;;;3.95;1.92;;;2.80;99.90;;;;;;5012195;28;20174;-70
2022/03/13 07:57:50;;;;;;;3.00;2.17;;;2.70;99.70;;;;;;5012202;28;20057;-73
2022/03/13 08:00:17;;;;;;;3.50;2.45;;;2.60;99.90;;;;;;5011985;28;20073;-73
2022/03/13 08:02:50;;;;;;;3.63;2.30;;;2.50;99.90;;;;;;5012176;28;20022;-69
2022/03/13 08:05:18;;;;;;;3.47;2.40;;;2.60;99.90;;;;;;5011844;28;20061;-68
2022/03/13 08:07:44;;;;;;;4.07;2.35;;;2.60;99.90;;;;;;5012343;28;20060;-69
2022/03/13 08:10:11;;;;;;;4.35;2.40;;;2.50;99.90;;;;;;5010571;28;20076;-72
2022/03/13 08:12:38;;;;;;;2.90;2.28;;;2.40;99.90;;;;;;5012324;28;20030;-72
2022/03/13 08:15:08;;;;;;;2.63;2.17;;;2.40;99.90;;;;;;5011719;28;20030;-72
2022/03/13 08:17:34;;;;;;;3.08;2.70;;;2.40;99.90;;;;;;5012352;28;20022;-72
2022/03/13 08:20:00;;;;;;;2.40;2.20;;;2.40;99.90;;;;;;5012131;28;20042;-71
2022/03/13 08:22:26;;;;;;;3.55;1.90;;;2.40;99.90;;;;;;5012078;28;20105;-68
2022/03/13 08:24:52;;;;;;;2.50;2.00;;;3.20;99.90;;;;;;5012104;28;20033;-73
2022/03/13 08:27:18;;;;;;;2.75;2.13;;;5.70;99.90;;;;;;5012185;28;20026;-73
2022/03/13 08:29:44;;;;;;;3.17;2.00;;;5.20;95.50;;;;;;5011970;28;20446;-74
2022/03/13 08:32:10;;;;;;;2.90;2.22;;;4.40;92.50;;;;;;5012126;28;20417;-71
2022/03/13 08:34:38;;;;;;;3.90;2.40;;;3.80;93.70;;;;;;5011923;28;20040;-71
2022/03/13 08:37:04;;;;;;;3.22;2.38;;;3.50;94.90;;;;;;5011639;28;20026;-67
2022/03/13 08:39:31;;;;;;;2.97;2.40;;;3.30;96.30;;;;;;5011707;28;20050;-67
2022/03/13 08:41:56;;;;;;;3.65;2.10;;;3.20;96.10;;;;;;5011852;28;20500;-68
2022/03/13 08:44:22;;;;;;;4.72;2.42;;;3.10;96.50;;;;;;5013168;28;20033;-75
2022/03/13 08:46:48;;;;;;;2.97;2.30;;;3.00;96.50;;;;;;5012108;28;20056;-76
2022/03/13 08:49:15;;;;;;;2.55;1.80;;;3.00;96.70;;;;;;5015151;28;20510;-76
2022/03/13 08:51:41;;;;;;;2.90;2.15;;;3.00;97.00;;;;;;5015794;28;20034;-75
2022/03/13 08:54:07;;;;;;;3.88;2.40;;;3.00;96.70;;;;;;5015229;28;20380;-75
2022/03/13 08:56:33;;;;;;;2.80;2.10;;;3.00;97.00;;;;;;5015477;28;20041;-77
2022/03/13 08:58:59;;;;;;;3.65;2.10;;;3.10;97.60;;;;;;5015371;28;20026;-76
2022/03/13 09:01:25;;;;;;;3.20;2.10;;;3.10;97.30;;;;;;5015306;28;20366;-76
2022/03/13 09:03:51;;;;;;;2.72;2.22;;;3.10;96.10;;;;;;5015512;28;20038;-77
2022/03/13 09:06:17;;;;;;;2.78;2.42;;;3.00;96.20;;;;;;5015369;28;20022;-75
2022/03/13 09:08:43;;;;;;;2.47;2.20;;;3.10;96.70;;;;;;5015074;28;20034;-76
2022/03/13 09:11:09;;;;;;;5.32;2.58;;;3.10;96.60;;;;;;5015201;28;20041;-76
2022/03/13 09:13:36;;;;;;;2.72;2.25;;;3.20;96.90;;;;;;5015157;28;20018;-75
2022/03/13 09:16:02;;;;;;;2.65;2.17;;;3.20;97.30;;;;;;5014835;28;20030;-77
2022/03/13 09:18:30;;;;;;;3.60;2.10;;;3.30;95.80;;;;;;5015257;28;20025;-78
2022/03/13 09:20:59;;;;;;;2.70;2.40;;;3.30;96.30;;;;;;5014925;28;20104;-76
2022/03/13 09:23:26;;;;;;;3.10;2.22;;;3.30;95.40;;;;;;5015230;28;20022;-76
2022/03/13 09:25:52;;;;;;;3.47;2.08;;;3.40;95.90;;;;;;5014891;28;20033;-78
2022/03/13 09:28:19;;;;;;;3.05;2.60;;;3.40;96.30;;;;;;5014708;28;20092;-76
2022/03/13 09:30:45;;;;;;;4.72;2.28;;;3.50;97.20;;;;;;5014915;28;20396;-78
2022/03/13 09:33:12;;;;;;;3.90;2.47;;;3.60;97.40;;;;;;5014654;28;20026;-76
2022/03/13 09:35:38;;;;;;;4.97;2.88;;;3.60;94.90;;;;;;5014450;28;20554;-78
2022/03/13 09:38:04;;;;;;;3.20;2.42;;;4.30;99.90;;;;;;5014464;28;20064;-78
2022/03/13 09:40:30;;;;;;;2.92;2.60;;;5.10;99.90;;;;;;5014814;28;20536;-78
2022/03/13 09:42:55;;;;;;;2.55;2.30;;;5.10;99.90;;;;;;5014965;28;20125;-78
2022/03/13 09:45:21;;;;;;;2.38;1.98;;;4.90;99.90;;;;;;5013202;28;20026;-78
2022/03/13 09:47:48;;;;;;;3.58;2.40;;;4.70;96.00;;;;;;5014931;28;20469;-78
2022/03/13 09:50:14;;;;;;;5.85;2.00;;;4.70;95.00;;;;;;5014321;28;20088;-72
2022/03/13 09:52:43;;;;;;;2.58;2.03;;;4.70;99.90;;;;;;5014517;28;20502;-76
2022/03/13 09:55:10;;;;;;;5.75;2.08;;;6.40;99.90;;;;;;5013879;28;20022;-77
2022/03/13 09:57:39;;;;;;;6.07;2.00;;;6.50;99.90;;;;;;5014711;28;20420;-78
2022/03/13 10:00:12;;;;;;;4.97;2.53;;;6.10;92.10;;;;;;5014279;28;20026;-77
2022/03/13 10:02:38;;;;;;;2.60;2.05;;;5.70;90.30;;;;;;5014473;28;20057;-77
2022/03/13 10:05:16;;;;;;;2.78;2.10;;;5.50;90.90;;;;;;5014057;28;20018;-76
2022/03/13 10:07:52;;;;;;;3.17;2.10;;;5.40;91.40;;;;;;5014446;28;20370;-78
2022/03/13 10:10:18;;;;;;;2.45;1.90;;;5.40;91.50;;;;;;5013801;28;20038;-77
2022/03/13 10:12:45;;;;;;;1.80;1.70;;;5.30;90.90;;;;;;5013994;28;20026;-77
2022/03/13 10:15:13;;;;;;;2.60;1.67;;;5.30;89.30;;;;;;5013967;28;20148;-77
2022/03/13 10:17:40;;;;;;;2.85;2.20;;;5.30;88.10;;;;;;5019605;28;20480;-76
2022/03/13 10:20:22;;;;;;;3.25;1.98;;;5.30;88.40;;;;;;5014127;28;20115;-76
2022/03/13 10:22:50;;;;;;;2.63;1.90;;;5.30;87.90;;;;;;5014169;28;20413;-74
2022/03/13 10:25:28;;;;;;;3.17;2.10;;;5.30;88.90;;;;;;5016032;28;20075;-75
2022/03/13 10:27:54;;;;;;;3.95;2.22;;;5.40;87.20;;;;;;5015709;28;20029;-74
2022/03/13 10:30:19;;;;;;;5.65;1.98;;;5.40;85.70;;;;;;5013806;28;20038;-74
2022/03/13 10:32:55;;;;;;;2.28;1.85;;;5.40;85.50;;;;;;5013652;28;20026;-74
2022/03/13 10:35:21;;;;;;;2.50;1.90;;;5.40;85.20;;;;;;5013020;28;20036;-76
2022/03/13 10:37:46;;;;;;;3.20;2.38;;;5.40;84.40;;;;;;5012839;28;20034;-75
2022/03/13 10:40:24;;;;;;;2.53;1.98;;;5.40;82.80;;;;;;5001205;28;20033;-81
2022/03/13 10:42:51;;;;;;;3.00;2.13;;;5.40;82.60;;;;;;4994070;28;20110;-69
2022/03/13 10:45:42;;;;;;;2.58;2.00;;;5.40;80.90;;;;;;4993918;28;20104;-69
2022/03/13 10:48:28;;;;;;;2.28;1.77;;;5.40;82.20;;;;;;5008259;28;20022;-74
2022/03/13 10:50:59;;;;;;;2.72;1.88;;;5.40;82.50;;;;;;5001792;28;20095;-74
2022/03/13 10:53:27;;;;;;;2.80;1.70;;;5.40;82.40;;;;;;5007315;28;20188;-73
2022/03/13 10:56:12;;;;;;;2.30;2.08;;;5.50;81.40;;;;;;5010146;28;20079;-74
2022/03/13 10:58:41;;;;;;;3.53;2.20;;;5.50;80.10;;;;;;5003869;28;20032;-73
2022/03/13 11:01:18;;;;;;;2.10;1.88;;;5.60;80.40;;;;;;5012604;28;20022;-74
2022/03/13 11:03:49;;;;;;;2.35;1.88;;;5.60;79.80;;;;;;5012835;28;20030;-74
2022/03/13 11:06:16;;;;;;;3.72;2.25;;;5.60;78.30;;;;;;5012227;28;20361;-74
2022/03/13 11:08:42;;;;;;;2.72;2.28;;;5.60;78.20;;;;;;5013082;28;20026;-74
2022/03/13 11:11:17;;;;;;;3.78;2.22;;;5.60;78.20;;;;;;5013006;28;20026;-74
2022/03/13 11:13:43;;;;;;;3.83;2.50;;;5.70;79.10;;;;;;5013072;28;20018;-73
2022/03/13 11:16:17;;;;;;;4.28;2.50;;;5.70;79.90;;;;;;5013053;28;20152;-73
2022/03/13 11:18:45;;;;;;;2.25;2.03;;;5.80;79.10;;;;;;5012895;28;20465;-73
2022/03/13 11:21:10;;;;;;;4.35;2.53;;;5.80;79.00;;;;;;5011470;28;20392;-73
2022/03/13 11:23:37;;;;;;;3.22;2.35;;;5.80;77.50;;;;;;5012757;28;20030;-73
2022/03/13 11:26:04;;;;;;;2.15;1.90;;;5.80;77.60;;;;;;5008224;28;20033;-74
2022/03/13 11:28:31;;;;;;;5.55;2.70;;;5.90;78.10;;;;;;5003911;28;20382;-74
2022/03/13 11:30:58;;;;;;;2.92;2.05;;;5.90;78.60;;;;;;5003315;28;20030;-74
2022/03/13 11:33:36;;;;;;;4.68;2.28;;;5.90;78.80;;;;;;5001909;28;20050;-72
2022/03/13 11:36:30;;;;;;;4.07;2.38;;;5.90;78.10;;;;;;5003994;28;20034;-73
2022/03/13 11:38:58;;;;;;;6.25;2.42;;;6.00;78.50;;;;;;5006277;28;20205;-73
2022/03/13 11:41:47;;;;;;;2.90;2.38;;;6.00;78.90;;;;;;5008804;28;20037;-73
2022/03/13 11:44:22;;;;;;;4.07;1.92;;;6.10;78.80;;;;;;5010425;28;20373;-69
2022/03/13 11:46:49;;;;;;;6.38;2.20;;;6.10;78.50;;;;;;5011799;28;20446;-78
2022/03/13 11:49:30;;;;;;;6.40;2.10;;;6.10;77.70;;;;;;5012180;28;20529;-75
2022/03/13 11:52:15;;;;;;;4.57;2.22;;;6.20;77.70;;;;;;5012347;28;20044;-75
2022/03/13 11:54:53;;;;;;;4.80;2.50;;;6.20;78.60;;;;;;5011651;28;20022;-75
2022/03/13 11:57:45;;;;;;;3.30;2.55;;;6.30;78.70;;;;;;5011333;28;20032;-74
2022/03/13 12:00:10;;;;;;;4.80;2.08;;;6.30;77.10;;;;;;5010661;28;20744;-79
2022/03/13 12:02:45;;;;;;;3.47;2.25;;;6.30;76.50;;;;;;5011304;28;20109;-72
2022/03/13 12:05:27;;;;;;;3.20;2.13;;;6.30;76.60;;;;;;5011564;28;20026;-72
2022/03/13 12:07:54;;;;;;;2.85;2.20;;;6.40;76.10;;;;;;5011962;28;20022;-74
2022/03/13 12:10:47;;;;;;;4.65;2.47;;;6.40;76.20;;;;;;5011935;28;20080;-75
2022/03/13 12:13:18;;;;;;;3.92;2.58;;;6.40;75.10;;;;;;5005693;28;20040;-72
2022/03/13 12:15:45;;;;;;;3.38;1.92;;;6.40;75.10;;;;;;5011928;28;20056;-74
2022/03/13 12:18:28;;;;;;;6.20;1.67;;;7.00;97.00;;;;;;5013512;28;20563;-71
2022/03/13 12:21:04;;;;;;;2.20;1.23;;;8.70;99.90;;;;;;5016044;28;20037;-74
2022/03/13 12:23:33;;;;;;;1.73;1.15;;;11.30;99.90;;;;;;5016012;28;20018;-68
2022/03/13 12:26:17;;;;;;;1.75;1.50;;;13.30;98.00;;;;;;5015907;28;20022;-68
2022/03/13 12:28:43;;;;;;;13.80;1.48;;;14.20;90.90;;;;;;5015937;28;20482;-69
2022/03/13 12:31:09;;;;;;;3.88;1.10;;;14.10;87.70;;;;;;5015719;28;20076;-72
2022/03/13 12:33:44;;;;;;;1.55;1.23;;;14.00;87.20;;;;;;5016104;28;20112;-72
2022/03/13 12:36:10;;;;;;;7.97;1.40;;;14.80;82.00;;;;;;5015802;28;20030;-71
2022/03/13 12:38:38;;;;;;;3.13;1.90;;;15.60;76.10;;;;;;5015574;28;20049;-70
2022/03/13 12:41:07;;;;;;;6.88;1.80;;;15.70;70.30;;;;;;5015648;28;20485;-72
2022/03/13 12:43:56;;;;;;;3.53;2.00;;;14.50;61.30;;;;;;5015877;28;20025;-71
2022/03/13 12:46:25;;;;;;;4.13;2.40;;;13.10;59.60;;;;;;5015788;28;20036;-73
2022/03/13 12:48:56;;;;;;;4.40;2.13;;;11.90;61.50;;;;;;5015103;28;20505;-72
2022/03/13 12:51:47;;;;;;;3.50;2.20;;;11.20;61.30;;;;;;5015587;28;20116;-67
2022/03/13 12:54:17;;;;;;;;;;;10.50;60.20;;;;;;5015948;28;20018;-67
2022/03/13 12:56:45;;;;;;;4.97;2.53;;;9.90;60.10;;;;;;5015982;28;19910;-68
2022/03/13 12:59:32;;;;;;;4.28;2.15;;;9.60;63.90;;;;;;5015184;28;20091;-68
2022/03/13 13:02:24;;;;;;;6.93;2.50;;;9.40;66.10;;;;;;5015154;28;20030;-73
2022/03/13 13:04:57;;;;;;;11.40;1.77;;;9.20;66.40;;;;;;5015337;28;20018;-73
2022/03/13 13:07:30;;;;;;;5.85;2.03;;;9.80;90.90;;;;;;5015431;28;20033;-74
2022/03/13 13:09:58;;;;;;;5.18;2.05;;;10.40;77.60;;;;;;5015268;28;20033;-71
2022/03/13 13:12:35;;;;;;;2.25;1.85;;;10.40;83.90;;;;;;5015028;28;20536;-73
2022/03/13 13:15:04;;;;;;;3.70;2.10;;;10.40;69.60;;;;;;5015397;28;20108;-73
2022/03/13 13:17:30;;;;;;;6.13;2.70;;;9.80;65.00;;;;;;5014975;28;20069;-73
2022/03/13 13:20:00;;;;;;;3.80;2.40;;;9.40;65.00;;;;;;5015232;28;20546;-72
2022/03/13 13:22:32;;;;;;;5.50;2.35;;;9.10;67.70;;;;;;5014991;28;20034;-73
2022/03/13 13:25:10;;;;;;;9.63;2.80;;;8.90;67.60;;;;;;5015164;28;20049;-73
2022/03/13 13:27:38;;;;;;;4.38;2.20;;;8.80;69.10;;;;;;5014814;28;20062;-73
2022/03/13 13:30:16;;;;;;;4.05;2.28;;;8.70;68.50;;;;;;5013904;28;20030;-73
2022/03/13 13:32:56;;;;;;;3.30;2.20;;;8.70;69.20;;;;;;5015148;28;20204;-73
2022/03/13 13:35:25;;;;;;;2.80;1.60;;;8.60;68.80;;;;;;5014627;28;20556;-68
2022/03/13 13:37:56;;;;;;;5.93;2.17;;;8.60;76.60;;;;;;5014522;28;20277;-72
2022/03/13 13:40:58;;;;;;;9.90;2.20;;;9.90;85.90;;;;;;5014431;28;20564;-73
2022/03/13 13:43:29;;;;;;;5.90;2.50;;;9.70;73.10;;;;;;5010636;28;20555;-73
2022/03/13 13:46:16;;;;;;;6.18;2.15;;;9.30;70.20;;;;;;5014610;28;20478;-76
2022/03/13 13:48:41;;;;;;;6.15;2.35;;;9.00;70.70;;;;;;4996637;28;20038;-75
2022/03/13 13:51:20;;;;;;;3.28;2.05;;;8.70;71.60;;;;;;4994867;28;20066;-77
2022/03/13 13:53:48;;;;;;;6.30;2.33;;;8.60;71.70;;;;;;4995240;28;20026;-77
2022/03/13 13:56:15;;;;;;;11.80;2.78;;;8.50;70.60;;;;;;4994977;28;20113;-77
2022/03/13 13:58:41;;;;;;;3.65;1.98;;;8.40;70.90;;;;;;4994963;28;20046;-77
2022/03/13 14:01:23;;;;;;;8.60;2.33;;;8.20;70.90;;;;;;4995047;28;20106;-77
2022/03/13 14:03:50;;;;;;;5.80;2.58;;;8.10;70.90;;;;;;4994696;28;20378;-78
2022/03/13 14:06:19;;;;;;;4.05;2.20;;;8.10;71.10;;;;;;4993253;28;20157;-77